Airfield :
LOGIN :

Register | Disclaimer

   EN    FR    IT 

 










Legend :    VFR   Marginal VFR   IFR   Intensive IFR   Very Intensive IFR
Visi :
Ceiling :
>= 8 km
>= 3000ft
5 to 8 km
1000 to 3000 ft
1500m to 5 km
500 to 1000 ft
800 to 1500m
200 to 500 ft
< 800m
< 200 ft
Symbols :   Thunderstorms  Fog  Heavy snow  Heavy precipitations  Wind > 20 kt
SIGMETs :     Misc.  Thunderstorms  Icing  Turbulence  Mountain Waves  Volcanic Ashes






- Airport Elevation : 465 ft
- IATA code : LEJ


EDDP - Leipzig Halle

CURRENT METAR :
  • 212350Z 19019KT 9999 FEW033 10/05 Q0992 BECMG 18025G35KT

EXPIRED METARs :
  • 212320Z 18017KT CAVOK 10/04 Q0993 BECMG 18025G35KT
  • 212250Z 17016KT CAVOK 09/04 Q0994 BECMG 18020G30KT
  • 212220Z 17015KT CAVOK 08/03 Q0994 BECMG 18020G30KT
  • 212150Z 16011KT CAVOK 08/04 Q0995 BECMG 18020G30KT
  • 212120Z 17011KT 9999 FEW030 08/04 Q0996 BECMG 18020G30KT

TAF TAF EDDP
Valid from the 22 at 00:00 until the 23 at 00:00 UTC


212300Z 2200/2224 18015G25KT 9999 SCT030
TEMPO 2200/2206 19020G35KT
BECMG 2209/2211 23009KT
BECMG 2213/2215 26004KT
PROB30
TEMPO 2214/2217 RA



MET'MAP, your aeronautical weather chart ! - Copyright ORBIFLY December 2007 - Disclaimer

ORBIFLY MET'MAP TEAM :

Programming & Development : Alexandra Zaïnal
Concept & original design : Baudouin d'Aumeries
Assistance for programming : Marc-Olivier Méhu
Technical & hardware support : Manuel Goepfert

Contact : metmap@orbifly.com




SOURCES & CREDITS :

   NOAA